createdAt,value
2019-05-16T00:01:19.298Z,4.30
2019-05-16T00:03:49.155Z,3.53
2019-05-16T00:06:18.601Z,3.80
2019-05-16T00:08:48.246Z,3.87
2019-05-16T00:11:18.059Z,4.13
2019-05-16T00:13:48.924Z,4.33
2019-05-16T00:16:18.795Z,4.33
2019-05-16T00:18:48.381Z,4.20
2019-05-16T00:21:18.128Z,3.97
2019-05-16T00:23:48.618Z,4.27
2019-05-16T00:26:19.732Z,3.80
2019-05-16T00:28:49.235Z,4.43
2019-05-16T00:31:18.523Z,4.17
2019-05-16T00:33:48.685Z,3.87
2019-05-16T00:36:19.349Z,4.77
2019-05-16T00:38:48.702Z,3.90
2019-05-16T00:41:18.170Z,4.47
2019-05-16T00:43:48.508Z,4.23
2019-05-16T00:46:20.051Z,4.57
2019-05-16T00:48:49.647Z,4.80
2019-05-16T00:51:19.105Z,4.23
2019-05-16T00:53:48.502Z,4.60
2019-05-16T00:56:18.795Z,4.67
2019-05-16T00:58:48.888Z,4.13
2019-05-16T01:01:18.969Z,4.20
2019-05-16T01:03:48.599Z,3.80
2019-05-16T01:06:22.624Z,4.33
2019-05-16T01:08:49.043Z,4.40
2019-05-16T01:11:18.736Z,4.57
2019-05-16T01:13:48.691Z,4.47
2019-05-16T01:16:18.742Z,4.60
2019-05-16T01:18:48.784Z,4.57
2019-05-16T01:21:18.751Z,3.73
2019-05-16T01:23:48.360Z,4.43
2019-05-16T01:26:18.572Z,4.27
2019-05-16T01:28:48.529Z,4.60
2019-05-16T01:31:19.153Z,4.17
2019-05-16T01:33:48.784Z,3.83
2019-05-16T01:36:31.810Z,4.23
2019-05-16T01:38:49.080Z,4.13
2019-05-16T01:41:18.328Z,4.20
2019-05-16T01:43:48.339Z,4.77
2019-05-16T01:46:18.245Z,4.60
2019-05-16T01:48:48.542Z,5.33
2019-05-16T01:51:18.605Z,4.87
2019-05-16T01:53:49.043Z,4.40
2019-05-16T01:56:18.356Z,4.20
2019-05-16T01:58:49.050Z,4.83
2019-05-16T02:01:19.239Z,4.60
2019-05-16T02:03:49.188Z,5.00
2019-05-16T02:06:18.595Z,4.73
2019-05-16T02:08:48.729Z,4.57
2019-05-16T02:11:18.355Z,4.60
2019-05-16T02:13:48.472Z,4.83
2019-05-16T02:16:18.798Z,4.40
2019-05-16T02:18:48.858Z,4.33
2019-05-16T02:21:18.483Z,4.63
2019-05-16T02:23:49.011Z,4.53
2019-05-16T02:26:19.293Z,4.73
2019-05-16T02:28:50.728Z,4.70
2019-05-16T02:31:22.796Z,3.73
2019-05-16T02:33:51.229Z,4.90
2019-05-16T02:36:21.761Z,5.03
2019-05-16T02:38:55.523Z,4.27
2019-05-16T02:41:23.469Z,3.90
2019-05-16T02:43:52.754Z,4.33
2019-05-16T02:46:22.127Z,3.97
2019-05-16T02:48:52.049Z,4.80
2019-05-16T02:51:21.720Z,4.57
2019-05-16T02:53:51.356Z,4.80
2019-05-16T02:56:21.291Z,4.20
2019-05-16T02:58:52.182Z,4.00
2019-05-16T03:01:22.136Z,4.57
2019-05-16T03:03:53.019Z,4.43
2019-05-16T03:06:22.500Z,4.10
2019-05-16T03:08:54.341Z,4.17
2019-05-16T03:11:24.847Z,3.53
2019-05-16T03:13:55.489Z,3.60
2019-05-16T03:16:26.928Z,3.50
2019-05-16T03:18:56.687Z,3.80
2019-05-16T03:21:26.671Z,3.07
2019-05-16T03:23:56.155Z,3.30
2019-05-16T03:26:25.455Z,2.37
2019-05-16T03:28:54.730Z,3.23
2019-05-16T03:31:25.261Z,3.23
2019-05-16T03:33:59.756Z,2.97
2019-05-16T03:36:26.009Z,3.60
2019-05-16T03:38:55.350Z,3.07
2019-05-16T03:41:25.716Z,2.87
2019-05-16T03:43:54.989Z,2.90
2019-05-16T03:46:24.364Z,3.40
2019-05-16T03:48:53.657Z,3.00
2019-05-16T03:51:22.906Z,2.93
2019-05-16T03:53:52.203Z,3.07
2019-05-16T03:56:22.062Z,3.00
2019-05-16T03:58:51.531Z,3.10
2019-05-16T04:01:21.188Z,3.00
2019-05-16T04:03:51.370Z,2.80
2019-05-16T04:06:22.155Z,3.27
2019-05-16T04:08:51.673Z,2.63
2019-05-16T04:11:23.315Z,2.63
2019-05-16T04:13:51.954Z,2.17
2019-05-16T04:16:21.275Z,2.17
2019-05-16T04:18:51.366Z,2.30
2019-05-16T04:21:21.982Z,2.73
2019-05-16T04:23:51.598Z,2.23
2019-05-16T04:26:21.819Z,1.97
2019-05-16T04:28:51.748Z,2.33
2019-05-16T04:31:22.776Z,2.23
2019-05-16T04:33:52.223Z,2.13
2019-05-16T04:36:21.619Z,1.93
2019-05-16T04:38:51.603Z,2.57
2019-05-16T04:41:21.441Z,1.90
2019-05-16T04:43:51.121Z,1.77
2019-05-16T04:46:21.598Z,2.10
2019-05-16T04:48:52.093Z,1.83
2019-05-16T04:51:23.064Z,2.27
2019-05-16T04:53:53.325Z,1.97
2019-05-16T04:56:24.657Z,1.67
2019-05-16T04:58:55.450Z,1.70
2019-05-16T05:01:25.504Z,2.17
2019-05-16T05:04:06.710Z,1.87
2019-05-16T05:06:31.297Z,1.60
2019-05-16T05:09:03.509Z,1.57
2019-05-16T05:11:33.749Z,1.53
2019-05-16T05:14:05.350Z,1.43
2019-05-16T05:16:35.465Z,1.47
2019-05-16T05:19:05.356Z,1.60
2019-05-16T05:21:35.057Z,1.57
2019-05-16T05:24:04.460Z,1.60
2019-05-16T05:26:33.987Z,1.30
2019-05-16T05:29:04.374Z,1.40
2019-05-16T05:31:35.519Z,1.43
2019-05-16T05:34:05.404Z,1.40
2019-05-16T05:36:34.684Z,1.20
2019-05-16T05:39:11.591Z,1.30
2019-05-16T05:41:40.131Z,1.07
2019-05-16T05:44:10.698Z,1.20
2019-05-16T05:46:40.664Z,1.33
2019-05-16T05:49:11.876Z,1.20
2019-05-16T05:51:41.572Z,1.20
2019-05-16T05:54:11.142Z,1.30
2019-05-16T05:56:41.066Z,1.50
2019-05-16T05:59:11.352Z,1.47
2019-05-16T06:01:41.023Z,1.50
2019-05-16T06:04:10.680Z,1.50
2019-05-16T06:06:41.859Z,1.47
2019-05-16T06:09:25.373Z,1.40
2019-05-16T06:11:42.167Z,1.37
2019-05-16T06:14:11.433Z,1.40
2019-05-16T06:16:40.704Z,1.50
2019-05-16T06:19:10.963Z,1.67
2019-05-16T06:21:44.609Z,1.50
2019-05-16T06:24:11.499Z,1.40
2019-05-16T06:26:40.800Z,1.50
2019-05-16T06:29:10.572Z,1.50
2019-05-16T06:31:41.514Z,1.23
2019-05-16T06:34:14.990Z,1.67
2019-05-16T06:36:42.226Z,1.70
2019-05-16T06:39:12.980Z,1.77
2019-05-16T06:41:42.303Z,1.53
2019-05-16T06:44:11.602Z,1.30
2019-05-16T06:46:56.472Z,1.50
2019-05-16T06:49:12.063Z,1.83
2019-05-16T06:51:41.335Z,1.57
2019-05-16T06:54:10.640Z,1.33
2019-05-16T06:56:40.239Z,1.83
2019-05-16T06:59:10.333Z,1.43
2019-05-16T07:01:40.474Z,1.27
2019-05-16T07:04:10.607Z,1.30
2019-05-16T07:06:54.785Z,1.23
2019-05-16T07:09:10.985Z,1.33
2019-05-16T07:11:40.286Z,1.20
2019-05-16T07:14:10.618Z,1.10
2019-05-16T07:16:40.636Z,1.10
2019-05-16T07:19:10.575Z,1.70
2019-05-16T07:21:41.704Z,1.37
2019-05-16T07:24:11.144Z,1.57
2019-05-16T07:26:41.856Z,1.30
2019-05-16T07:29:11.248Z,1.00
2019-05-16T07:31:40.709Z,1.50
2019-05-16T07:34:11.583Z,1.30
2019-05-16T07:36:41.116Z,1.37
2019-05-16T07:39:10.959Z,1.40
2019-05-16T07:41:40.389Z,1.37
2019-05-16T07:44:11.169Z,1.20
2019-05-16T07:46:44.462Z,1.50
2019-05-16T07:49:11.663Z,1.20
2019-05-16T07:51:41.104Z,1.20
2019-05-16T07:54:10.637Z,1.60
2019-05-16T07:56:40.711Z,4.07
2019-05-16T07:59:10.582Z,1.80
2019-05-16T08:01:42.919Z,1.40
2019-05-16T08:04:10.971Z,1.53
2019-05-16T08:06:41.519Z,1.20
2019-05-16T08:09:12.715Z,1.30
2019-05-16T08:11:42.149Z,1.40
2019-05-16T08:14:11.458Z,1.00
2019-05-16T08:16:41.060Z,1.30
2019-05-16T08:19:10.759Z,1.30
2019-05-16T08:21:41.135Z,1.03
2019-05-16T08:24:15.090Z,1.27
2019-05-16T08:26:43.153Z,1.30
2019-05-16T08:29:13.550Z,1.20
2019-05-16T08:31:43.413Z,1.10
2019-05-16T08:34:13.096Z,1.20
2019-05-16T08:36:42.462Z,1.30
2019-05-16T08:39:11.932Z,1.10
2019-05-16T08:41:42.472Z,1.00
2019-05-16T08:44:12.607Z,1.20
2019-05-16T08:46:42.628Z,1.30
2019-05-16T08:49:12.680Z,1.03
2019-05-16T08:51:42.796Z,1.20
2019-05-16T08:54:14.196Z,1.40
2019-05-16T08:56:44.923Z,1.20
2019-05-16T08:59:14.316Z,1.10
2019-05-16T09:01:52.128Z,1.00
2019-05-16T09:04:14.607Z,1.03
2019-05-16T09:06:43.861Z,1.20
2019-05-16T09:09:29.722Z,0.90
2019-05-16T09:11:47.555Z,1.00
2019-05-16T09:14:17.185Z,0.97
2019-05-16T09:16:47.949Z,1.23
2019-05-16T09:19:17.359Z,1.20
2019-05-16T09:21:47.553Z,1.30
2019-05-16T09:24:17.969Z,1.10
2019-05-16T09:26:47.677Z,1.20
2019-05-16T09:29:17.048Z,1.30
2019-05-16T09:32:07.397Z,1.50
2019-05-16T09:34:18.905Z,1.10
2019-05-16T09:36:48.349Z,1.30
2019-05-16T09:39:17.743Z,1.27
2019-05-16T09:41:54.447Z,1.20
2019-05-16T09:44:18.564Z,1.30
2019-05-16T09:46:48.045Z,1.30
2019-05-16T09:49:24.228Z,1.27
2019-05-16T09:51:48.335Z,1.60
2019-05-16T09:54:17.616Z,1.23
2019-05-16T09:56:46.895Z,1.20
2019-05-16T09:59:17.275Z,1.13
2019-05-16T10:01:47.823Z,1.10
2019-05-16T10:04:17.665Z,1.57
2019-05-16T10:06:47.091Z,1.53
2019-05-16T10:09:17.456Z,1.40
2019-05-16T10:11:49.472Z,1.40
2019-05-16T10:14:18.082Z,1.33
2019-05-16T10:16:47.898Z,1.57
2019-05-16T10:19:17.354Z,1.30
2019-05-16T10:21:46.715Z,1.37
2019-05-16T10:24:16.001Z,1.50
2019-05-16T10:26:47.234Z,1.40
2019-05-16T10:29:18.410Z,1.67
2019-05-16T10:31:52.908Z,1.50
2019-05-16T10:34:18.355Z,1.50
2019-05-16T10:36:47.636Z,1.50
2019-05-16T10:39:16.917Z,1.80
2019-05-16T10:41:46.753Z,1.73
2019-05-16T10:44:17.488Z,1.80
2019-05-16T10:46:47.890Z,1.60
2019-05-16T10:49:32.847Z,1.63
2019-05-16T10:51:48.561Z,2.10
2019-05-16T10:54:18.587Z,2.13
2019-05-16T10:56:48.407Z,1.50
2019-05-16T10:59:51.109Z,2.30
2019-05-16T11:01:48.799Z,2.23
2019-05-16T11:04:28.552Z,2.43
2019-05-16T11:06:49.185Z,2.43
2019-05-16T11:09:18.452Z,2.47
2019-05-16T11:11:47.858Z,3.00
2019-05-16T11:14:17.545Z,2.83
2019-05-16T11:16:47.493Z,3.13
2019-05-16T11:19:23.472Z,3.20
2019-05-16T11:21:47.950Z,3.47
2019-05-16T11:24:17.337Z,3.07
2019-05-16T11:26:47.337Z,2.57
2019-05-16T11:29:16.904Z,3.20
2019-05-16T11:31:46.917Z,3.67
2019-05-16T11:34:17.862Z,3.80
2019-05-16T11:36:47.923Z,4.10
2019-05-16T11:39:17.546Z,3.70
2019-05-16T11:41:47.495Z,4.13
2019-05-16T11:44:17.602Z,4.20
2019-05-16T11:46:48.973Z,3.83
2019-05-16T11:49:18.228Z,4.17
2019-05-16T11:51:47.527Z,4.40
2019-05-16T11:54:16.816Z,4.03
2019-05-16T11:56:46.468Z,4.80
2019-05-16T11:59:15.845Z,4.20
2019-05-16T12:01:47.480Z,3.83
2019-05-16T12:04:17.520Z,4.47
2019-05-16T12:06:47.011Z,3.37
2019-05-16T12:09:17.791Z,3.80
2019-05-16T12:11:47.447Z,4.33
2019-05-16T12:14:16.903Z,3.90
2019-05-16T12:16:47.246Z,3.70
2019-05-16T12:19:18.123Z,3.83
2019-05-16T12:21:47.744Z,3.90
2019-05-16T12:24:31.748Z,3.30
2019-05-16T12:26:48.222Z,3.23
2019-05-16T12:29:17.600Z,3.30
2019-05-16T12:31:57.482Z,3.60
2019-05-16T12:34:17.962Z,2.93
2019-05-16T12:36:47.439Z,2.80
2019-05-16T12:39:18.042Z,2.70
2019-05-16T12:41:49.111Z,2.50
2019-05-16T12:44:18.378Z,2.60
2019-05-16T12:46:47.677Z,2.00
2019-05-16T12:49:17.546Z,2.03
2019-05-16T12:51:46.961Z,1.47
2019-05-16T12:54:18.231Z,2.00
2019-05-16T12:56:48.271Z,1.90
2019-05-16T12:59:21.060Z,1.80
2019-05-16T13:01:48.862Z,2.30
2019-05-16T13:04:19.032Z,2.10
2019-05-16T13:06:48.689Z,1.87
2019-05-16T13:09:18.626Z,1.43
2019-05-16T13:11:48.154Z,2.17
2019-05-16T13:14:17.414Z,1.80
2019-05-16T13:16:47.933Z,2.43
2019-05-16T13:19:18.256Z,2.37
2019-05-16T13:21:47.735Z,2.50
2019-05-16T13:24:18.705Z,2.17
2019-05-16T13:26:48.306Z,2.17
2019-05-16T13:29:18.206Z,3.30
2019-05-16T13:31:48.132Z,2.83
2019-05-16T13:34:17.914Z,2.90
2019-05-16T13:36:47.687Z,2.50
2019-05-16T13:39:17.343Z,2.10
2019-05-16T13:41:46.683Z,2.60
2019-05-16T13:44:22.720Z,2.80
2019-05-16T13:46:46.954Z,2.80
2019-05-16T13:49:18.085Z,2.30
2019-05-16T13:51:47.450Z,2.20
2019-05-16T13:54:17.731Z,2.13
2019-05-16T13:56:48.315Z,4.80
2019-05-16T13:59:18.094Z,5.03
2019-05-16T14:01:48.473Z,3.20
2019-05-16T14:04:17.722Z,2.50
2019-05-16T14:06:47.861Z,2.43
2019-05-16T14:09:17.726Z,1.80
2019-05-16T14:11:47.142Z,1.30
2019-05-16T14:14:32.091Z,1.30
2019-05-16T14:16:47.584Z,1.20
2019-05-16T14:19:17.641Z,1.20
2019-05-16T14:21:48.002Z,1.27
2019-05-16T14:24:18.784Z,1.70
2019-05-16T14:26:48.092Z,2.40
2019-05-16T14:29:17.852Z,1.97
2019-05-16T14:31:50.555Z,1.73
2019-05-16T14:34:19.874Z,2.03
2019-05-16T14:36:49.190Z,2.20
2019-05-16T14:39:19.847Z,2.20
2019-05-16T14:41:49.346Z,2.13
2019-05-16T14:44:18.740Z,1.40
2019-05-16T14:46:47.993Z,0.80
2019-05-16T14:49:18.157Z,1.20
2019-05-16T14:51:47.935Z,1.00
2019-05-16T14:54:17.282Z,1.20
2019-05-16T14:56:47.577Z,1.20
2019-05-16T14:59:17.041Z,1.20
2019-05-16T15:01:47.294Z,0.93
2019-05-16T15:04:16.690Z,1.20
2019-05-16T15:06:47.002Z,1.10
2019-05-16T15:09:18.037Z,1.20
2019-05-16T15:11:47.311Z,1.33
2019-05-16T15:14:17.416Z,1.60
2019-05-16T15:16:51.824Z,1.33
2019-05-16T15:19:19.966Z,1.00
2019-05-16T15:21:52.072Z,0.90
2019-05-16T15:24:21.370Z,0.80
2019-05-16T15:26:52.595Z,0.80
2019-05-16T15:29:23.539Z,0.83
2019-05-16T15:31:54.421Z,0.93
2019-05-16T15:34:29.849Z,0.90
2019-05-16T15:37:00.112Z,1.13
2019-05-16T15:39:31.142Z,1.23
2019-05-16T15:42:01.837Z,0.90
2019-05-16T15:44:32.073Z,1.20
2019-05-16T15:47:02.083Z,0.97
2019-05-16T15:49:31.838Z,0.93
2019-05-16T15:52:02.295Z,1.60
2019-05-16T15:54:32.776Z,1.17
2019-05-16T15:57:02.043Z,1.67
2019-05-16T15:59:32.203Z,0.97
2019-05-16T16:02:03.256Z,1.07
2019-05-16T16:04:32.558Z,1.33
2019-05-16T16:07:01.840Z,1.10
2019-05-16T16:09:31.129Z,0.80
2019-05-16T16:12:01.502Z,0.80
2019-05-16T16:14:30.795Z,0.80
2019-05-16T16:17:02.043Z,0.70
2019-05-16T16:19:31.419Z,0.80
2019-05-16T16:22:00.765Z,0.70
2019-05-16T16:24:30.882Z,0.80
2019-05-16T16:27:00.316Z,0.63
2019-05-16T16:29:32.976Z,0.93
2019-05-16T16:32:02.017Z,0.70
2019-05-16T16:34:31.491Z,0.60
2019-05-16T16:37:00.782Z,0.60
2019-05-16T16:39:30.085Z,0.73
2019-05-16T16:41:59.357Z,0.77
2019-05-16T16:44:28.626Z,0.73
2019-05-16T16:46:57.908Z,0.60
2019-05-16T16:49:27.982Z,0.83
2019-05-16T16:51:57.542Z,0.70
2019-05-16T16:54:27.690Z,0.70
2019-05-16T16:56:57.636Z,0.80
2019-05-16T16:59:28.058Z,0.80
2019-05-16T17:01:59.487Z,0.90
2019-05-16T17:04:28.841Z,0.70
2019-05-16T17:06:58.139Z,0.60
2019-05-16T17:09:27.666Z,0.70
2019-05-16T17:11:57.970Z,0.90
2019-05-16T17:14:27.332Z,0.80
2019-05-16T17:16:57.480Z,0.83
2019-05-16T17:19:27.022Z,0.70
2019-05-16T17:22:11.972Z,0.80
2019-05-16T17:24:31.245Z,0.90
2019-05-16T17:27:01.065Z,1.00
2019-05-16T17:29:30.360Z,0.80
2019-05-16T17:32:05.757Z,0.97
2019-05-16T17:34:30.860Z,1.00
2019-05-16T17:37:00.128Z,0.80
2019-05-16T17:39:29.446Z,0.80
2019-05-16T17:41:58.986Z,0.90
2019-05-16T17:44:28.358Z,1.30
2019-05-16T17:46:57.789Z,1.37
2019-05-16T17:49:27.134Z,1.30
2019-05-16T17:51:56.790Z,0.93
2019-05-16T17:54:26.731Z,1.60
2019-05-16T17:56:56.732Z,1.37
2019-05-16T17:59:27.512Z,1.70
2019-05-16T18:01:57.062Z,1.80
2019-05-16T18:04:28.181Z,1.60
2019-05-16T18:06:59.195Z,1.43
2019-05-16T18:09:29.966Z,1.97
2019-05-16T18:11:59.289Z,1.83
2019-05-16T18:14:28.663Z,2.67
2019-05-16T18:17:02.152Z,2.33
2019-05-16T18:19:31.536Z,2.80
2019-05-16T18:22:00.858Z,2.57
2019-05-16T18:24:30.274Z,2.23
2019-05-16T18:26:59.671Z,3.03
2019-05-16T18:29:28.968Z,2.70
2019-05-16T18:31:58.284Z,3.67
2019-05-16T18:34:28.097Z,3.60
2019-05-16T18:36:57.588Z,3.47
2019-05-16T18:39:27.269Z,3.23
2019-05-16T18:41:56.724Z,3.83
2019-05-16T18:44:27.276Z,3.97
2019-05-16T18:47:04.774Z,3.53
2019-05-16T18:49:27.802Z,4.70
2019-05-16T18:51:57.115Z,5.03
2019-05-16T18:54:26.710Z,4.73
2019-05-16T18:56:57.860Z,5.53
2019-05-16T18:59:27.317Z,5.33
2019-05-16T19:01:56.701Z,5.27
2019-05-16T19:04:27.456Z,6.20
2019-05-16T19:06:59.624Z,4.97
2019-05-16T19:09:29.144Z,4.67
2019-05-16T19:11:59.209Z,5.50
2019-05-16T19:14:28.887Z,6.20
2019-05-16T19:16:58.191Z,5.70
2019-05-16T19:19:28.273Z,5.80
2019-05-16T19:21:59.538Z,6.23
2019-05-16T19:24:28.757Z,6.40
2019-05-16T19:26:58.023Z,6.47
2019-05-16T19:29:28.834Z,7.20
2019-05-16T19:31:58.134Z,7.03
2019-05-16T19:34:29.269Z,6.93
2019-05-16T19:36:58.510Z,6.80
2019-05-16T19:39:28.764Z,7.17
2019-05-16T19:41:58.160Z,8.30
2019-05-16T19:44:27.458Z,7.60
2019-05-16T19:46:58.074Z,8.70
2019-05-16T19:49:27.740Z,6.97
2019-05-16T19:51:57.138Z,7.03
2019-05-16T19:54:28.048Z,7.47
2019-05-16T19:56:57.784Z,7.47
2019-05-16T19:59:27.299Z,7.90
2019-05-16T20:01:57.031Z,8.37
2019-05-16T20:04:27.362Z,8.67
2019-05-16T20:06:57.920Z,7.70
2019-05-16T20:09:30.163Z,8.27
2019-05-16T20:11:58.225Z,8.33
2019-05-16T20:14:27.510Z,8.80
2019-05-16T20:16:56.791Z,8.97
2019-05-16T20:19:26.782Z,8.97
2019-05-16T20:21:58.115Z,11.73
2019-05-16T20:24:27.334Z,9.07
2019-05-16T20:26:57.209Z,9.67
2019-05-16T20:29:27.348Z,9.13
2019-05-16T20:31:59.507Z,9.77
2019-05-16T20:34:27.867Z,9.17
2019-05-16T20:36:57.326Z,9.70
2019-05-16T20:39:26.856Z,10.13
2019-05-16T20:41:59.689Z,9.83
2019-05-16T20:44:28.449Z,10.50
2019-05-16T20:46:57.712Z,10.63
2019-05-16T20:49:27.198Z,9.43
2019-05-16T20:51:57.940Z,11.50
2019-05-16T20:54:27.289Z,11.03
2019-05-16T20:56:57.396Z,11.03
2019-05-16T20:59:27.326Z,10.87
2019-05-16T21:01:57.506Z,11.00
2019-05-16T21:04:26.864Z,11.93
2019-05-16T21:07:10.031Z,11.47
2019-05-16T21:09:36.882Z,11.57
2019-05-16T21:12:08.300Z,11.20
2019-05-16T21:14:37.403Z,12.57
2019-05-16T21:17:06.842Z,12.80
2019-05-16T21:19:36.299Z,12.53
2019-05-16T21:22:07.341Z,12.80
2019-05-16T21:24:37.290Z,13.27
2019-05-16T21:27:06.887Z,13.07
2019-05-16T21:29:36.963Z,13.30
2019-05-16T21:32:07.375Z,13.83
2019-05-16T21:34:36.863Z,13.43
2019-05-16T21:37:14.574Z,14.10
2019-05-16T21:39:37.315Z,14.43
2019-05-16T21:42:07.813Z,13.53
2019-05-16T21:44:37.534Z,12.77
2019-05-16T21:47:06.823Z,13.73
2019-05-16T21:49:37.018Z,13.87
2019-05-16T21:52:06.951Z,14.17
2019-05-16T21:54:36.814Z,13.80
2019-05-16T21:57:07.740Z,13.97
2019-05-16T21:59:37.683Z,13.53
2019-05-16T22:02:07.381Z,14.27
2019-05-16T22:04:36.872Z,14.27
2019-05-16T22:07:07.229Z,13.47
2019-05-16T22:09:37.189Z,13.67
2019-05-16T22:12:06.927Z,12.93
2019-05-16T22:14:46.521Z,13.37
2019-05-16T22:17:16.937Z,13.60
2019-05-16T22:19:46.936Z,14.63
2019-05-16T22:22:16.565Z,13.37
2019-05-16T22:24:46.171Z,13.63
2019-05-16T22:27:17.373Z,13.73
2019-05-16T22:29:46.881Z,13.47
2019-05-16T22:32:16.826Z,13.27
2019-05-16T22:34:47.664Z,13.00
2019-05-16T22:37:17.456Z,13.50
2019-05-16T22:39:48.376Z,13.13
2019-05-16T22:42:19.508Z,14.43
2019-05-16T22:44:50.322Z,13.57
2019-05-16T22:47:21.781Z,13.40
2019-05-16T22:49:56.604Z,14.27
2019-05-16T22:52:26.584Z,13.87
2019-05-16T22:54:56.707Z,13.97
2019-05-16T22:57:26.887Z,14.40
2019-05-16T22:59:56.958Z,14.63
2019-05-16T23:02:27.417Z,14.47
2019-05-16T23:04:56.831Z,14.77
2019-05-16T23:07:27.469Z,14.87
2019-05-16T23:09:56.878Z,15.93
2019-05-16T23:12:26.616Z,15.43
2019-05-16T23:14:56.924Z,15.27
2019-05-16T23:17:26.818Z,15.07
2019-05-16T23:19:56.778Z,14.90
2019-05-16T23:22:27.427Z,15.33
2019-05-16T23:24:57.107Z,15.70
2019-05-16T23:27:27.338Z,15.80
2019-05-16T23:29:56.947Z,16.17
2019-05-16T23:32:27.082Z,15.63
2019-05-16T23:34:57.249Z,15.67
2019-05-16T23:37:27.411Z,16.33
2019-05-16T23:39:58.276Z,16.27
2019-05-16T23:42:27.579Z,16.57
2019-05-16T23:44:56.864Z,16.90
2019-05-16T23:47:26.271Z,16.90
2019-05-16T23:49:56.793Z,15.63
2019-05-16T23:52:27.328Z,15.93
2019-05-16T23:54:57.071Z,16.90
2019-05-16T23:57:26.950Z,15.53
2019-05-16T23:59:56.752Z,16.73
